createdAt,value
2023-04-20T00:01:31.944Z,7.32
2023-04-20T00:03:59.494Z,7.34
2023-04-20T00:06:29.506Z,7.21
2023-04-20T00:08:57.217Z,7.78
2023-04-20T00:11:24.697Z,7.58
2023-04-20T00:13:52.110Z,7.43
2023-04-20T00:16:21.097Z,6.96
2023-04-20T00:18:48.760Z,6.57
2023-04-20T00:21:16.807Z,6.76
2023-04-20T00:23:44.207Z,7.14
2023-04-20T00:26:11.788Z,7.35
2023-04-20T00:28:39.240Z,7.38
2023-04-20T00:31:06.966Z,7.50
2023-04-20T00:33:36.079Z,7.27
2023-04-20T00:36:03.543Z,6.85
2023-04-20T00:38:30.928Z,7.04
2023-04-20T00:40:58.872Z,7.71
2023-04-20T00:43:26.321Z,7.16
2023-04-20T00:45:53.878Z,7.06
2023-04-20T00:48:21.998Z,7.34
2023-04-20T00:50:51.825Z,6.96
2023-04-20T00:53:19.655Z,7.05
2023-04-20T00:55:47.923Z,7.51
2023-04-20T00:58:15.380Z,7.69
2023-04-20T01:00:42.804Z,7.71
2023-04-20T01:03:10.679Z,7.10
2023-04-20T01:05:38.314Z,7.16
2023-04-20T01:08:07.294Z,7.53
2023-04-20T01:10:34.703Z,7.28
2023-04-20T01:13:03.285Z,7.79
2023-04-20T01:15:30.730Z,7.87
2023-04-20T01:17:58.867Z,7.87
2023-04-20T01:20:26.353Z,7.70
2023-04-20T01:22:55.168Z,8.42
2023-04-20T01:25:23.306Z,8.10
2023-04-20T01:27:50.915Z,7.47
2023-04-20T01:30:18.337Z,7.65
2023-04-20T01:32:46.097Z,7.29
2023-04-20T01:35:14.493Z,7.18
2023-04-20T01:37:42.286Z,7.22
2023-04-20T01:40:12.711Z,7.62
2023-04-20T01:45:21.925Z,7.63
2023-04-20T01:47:49.390Z,7.27
2023-04-20T01:50:16.859Z,7.60
2023-04-20T01:52:44.275Z,8.07
2023-04-20T01:55:13.092Z,8.02
2023-04-20T01:57:40.530Z,7.62
2023-04-20T02:00:09.976Z,6.86
2023-04-20T02:02:37.712Z,7.08
2023-04-20T02:05:06.024Z,6.98
2023-04-20T02:07:33.503Z,7.26
2023-04-20T02:10:00.911Z,7.03
2023-04-20T02:12:29.733Z,7.22
2023-04-20T02:14:57.485Z,7.66
2023-04-20T02:17:25.123Z,7.55
2023-04-20T02:19:52.534Z,7.58
2023-04-20T02:22:19.971Z,7.12
2023-04-20T02:24:47.349Z,7.55
2023-04-20T02:27:14.741Z,7.26
2023-04-20T02:29:43.496Z,7.13
2023-04-20T02:32:11.209Z,7.65
2023-04-20T02:34:38.603Z,7.52
2023-04-20T02:37:05.986Z,8.10
2023-04-20T02:39:33.378Z,7.71
2023-04-20T02:42:01.648Z,8.01
2023-04-20T02:44:29.078Z,8.01
2023-04-20T02:46:57.800Z,7.46
2023-04-20T02:49:25.291Z,8.22
2023-04-20T02:51:52.707Z,7.57
2023-04-20T02:54:20.194Z,8.46
2023-04-20T02:56:47.648Z,7.82
2023-04-20T02:59:15.212Z,7.77
2023-04-20T03:01:42.764Z,7.76
2023-04-20T03:04:11.786Z,7.58
2023-04-20T03:06:40.467Z,8.25
2023-04-20T03:09:08.889Z,8.82
2023-04-20T03:11:36.362Z,8.69
2023-04-20T03:14:03.729Z,8.46
2023-04-20T03:16:31.172Z,8.83
2023-04-20T03:18:59.370Z,8.95
2023-04-20T03:21:28.568Z,8.12
2023-04-20T03:23:55.951Z,7.70
2023-04-20T03:26:24.260Z,7.83
2023-04-20T03:28:52.094Z,8.52
2023-04-20T03:31:19.874Z,8.10
2023-04-20T03:33:47.300Z,8.68
2023-04-20T03:36:14.873Z,8.29
2023-04-20T03:38:43.970Z,8.39
2023-04-20T03:41:11.384Z,9.38
2023-04-20T03:43:38.806Z,7.90
2023-04-20T03:46:06.439Z,7.13
2023-04-20T03:48:33.905Z,8.36
2023-04-20T03:51:01.455Z,7.16
2023-04-20T03:53:29.720Z,8.01
2023-04-20T03:55:58.506Z,8.50
2023-04-20T03:58:26.013Z,7.83
2023-04-20T04:00:53.463Z,7.83
2023-04-20T04:03:21.326Z,7.71
2023-04-20T04:05:48.938Z,7.50
2023-04-20T04:08:16.304Z,8.22
2023-04-20T04:10:43.716Z,8.06
2023-04-20T04:13:12.588Z,8.46
2023-04-20T04:15:40.034Z,7.90
2023-04-20T04:18:07.461Z,7.83
2023-04-20T04:20:34.984Z,7.89
2023-04-20T04:23:02.398Z,8.00
2023-04-20T04:25:29.805Z,8.29
2023-04-20T04:27:57.454Z,8.51
2023-04-20T04:30:27.491Z,8.47
2023-04-20T04:32:55.472Z,7.65
2023-04-20T04:35:23.321Z,7.72
2023-04-20T04:37:50.706Z,7.84
2023-04-20T04:40:18.287Z,7.99
2023-04-20T04:42:47.527Z,7.28
2023-04-20T04:45:15.306Z,7.50
2023-04-20T04:47:44.064Z,7.51
2023-04-20T04:50:13.017Z,7.54
2023-04-20T04:52:40.530Z,7.62
2023-04-20T04:55:09.764Z,8.00
2023-04-20T04:57:38.483Z,7.92
2023-04-20T05:00:09.578Z,8.22
2023-04-20T05:02:37.519Z,8.46
2023-04-20T05:05:09.527Z,9.23
2023-04-20T05:07:38.194Z,7.93
2023-04-20T05:10:06.588Z,8.37
2023-04-20T05:12:34.248Z,9.00
2023-04-20T05:15:01.695Z,8.96
2023-04-20T05:17:29.236Z,9.27
2023-04-20T05:19:56.693Z,9.59
2023-04-20T05:22:25.479Z,9.92
2023-04-20T05:24:52.878Z,10.22
2023-04-20T05:27:20.304Z,9.21
2023-04-20T05:29:48.142Z,8.73
2023-04-20T05:32:15.544Z,8.66
2023-04-20T05:34:42.944Z,8.43
2023-04-20T05:37:10.428Z,8.77
2023-04-20T05:39:39.122Z,9.01
2023-04-20T05:42:06.597Z,9.25
2023-04-20T05:44:36.379Z,8.75
2023-04-20T05:47:06.284Z,9.50
2023-04-20T05:49:33.919Z,10.03
2023-04-20T05:52:01.595Z,10.47
2023-04-20T05:54:29.221Z,10.65
2023-04-20T05:56:58.698Z,10.03
2023-04-20T05:59:26.753Z,9.90
2023-04-20T06:01:54.206Z,10.09
2023-04-20T06:04:22.063Z,10.33
2023-04-20T06:06:49.651Z,9.66
2023-04-20T06:09:17.417Z,10.19
2023-04-20T06:11:45.085Z,10.68
2023-04-20T06:14:14.538Z,9.49
2023-04-20T06:16:41.983Z,9.33
2023-04-20T06:19:09.459Z,9.68
2023-04-20T06:21:37.509Z,10.16
2023-04-20T06:24:05.529Z,10.63
2023-04-20T06:26:32.943Z,10.65
2023-04-20T06:29:00.892Z,10.74
2023-04-20T06:31:29.661Z,10.29
2023-04-20T06:33:57.106Z,9.35
2023-04-20T06:36:24.494Z,9.09
2023-04-20T06:38:51.945Z,9.13
2023-04-20T06:41:19.355Z,10.08
2023-04-20T06:43:46.826Z,9.53
2023-04-20T06:46:14.255Z,9.82
2023-04-20T06:48:43.233Z,10.52
2023-04-20T06:51:10.781Z,10.66
2023-04-20T06:53:38.218Z,10.32
2023-04-20T06:56:06.160Z,11.20
2023-04-20T06:58:33.606Z,10.60
2023-04-20T07:01:01.147Z,10.27
2023-04-20T07:03:28.970Z,10.76
2023-04-20T07:05:57.883Z,9.92
2023-04-20T07:08:25.335Z,11.18
2023-04-20T07:10:52.733Z,9.22
2023-04-20T07:13:20.210Z,9.39
2023-04-20T07:15:47.658Z,10.01
2023-04-20T07:18:15.219Z,9.80
2023-04-20T07:20:42.797Z,10.40
2023-04-20T07:23:11.562Z,9.21
2023-04-20T07:25:39.085Z,8.90
2023-04-20T07:28:06.564Z,9.16
2023-04-20T07:30:33.995Z,9.19
2023-04-20T07:33:01.437Z,9.14
2023-04-20T07:35:29.099Z,9.54
2023-04-20T07:37:56.546Z,9.95
2023-04-20T07:40:25.723Z,10.79
2023-04-20T07:42:53.146Z,11.09
2023-04-20T07:45:21.737Z,10.24
2023-04-20T07:47:51.451Z,10.34
2023-04-20T07:50:19.117Z,11.54
2023-04-20T07:52:46.626Z,11.24
2023-04-20T07:55:14.462Z,12.47
2023-04-20T07:57:43.189Z,12.16
2023-04-20T08:00:12.963Z,10.75
2023-04-20T08:02:40.510Z,11.25
2023-04-20T08:05:10.321Z,10.21
2023-04-20T08:07:38.132Z,11.05
2023-04-20T08:10:06.318Z,11.84
2023-04-20T08:12:34.058Z,12.21
2023-04-20T08:15:06.327Z,10.28
2023-04-20T08:17:34.170Z,9.78
2023-04-20T08:20:02.187Z,9.82
2023-04-20T08:22:30.671Z,9.92
2023-04-20T08:24:58.261Z,9.90
2023-04-20T08:27:26.221Z,10.21
2023-04-20T08:29:53.631Z,11.38
2023-04-20T08:32:23.783Z,11.30
2023-04-20T08:34:51.440Z,10.34
2023-04-20T08:37:18.862Z,10.92
2023-04-20T08:39:46.500Z,10.53
2023-04-20T08:42:14.024Z,11.09
2023-04-20T08:44:41.493Z,11.34
2023-04-20T08:47:10.799Z,11.72
2023-04-20T08:49:40.504Z,10.23
2023-04-20T08:52:10.796Z,10.53
2023-04-20T08:54:45.926Z,10.91
2023-04-20T08:57:17.009Z,9.97
2023-04-20T08:59:44.456Z,9.90
2023-04-20T09:02:12.779Z,10.00
2023-04-20T09:04:41.994Z,10.28
2023-04-20T09:07:18.626Z,10.18
2023-04-20T09:09:55.452Z,9.53
2023-04-20T09:12:23.111Z,9.69
2023-04-20T09:14:50.535Z,9.57
2023-04-20T09:17:20.376Z,9.59
2023-04-20T09:19:54.376Z,9.10
2023-04-20T09:22:30.830Z,9.01
2023-04-20T09:24:58.255Z,9.07
2023-04-20T09:27:26.404Z,9.95
2023-04-20T09:30:01.606Z,9.90
2023-04-20T09:32:29.684Z,9.82
2023-04-20T09:34:58.448Z,10.40
2023-04-20T09:37:25.870Z,10.16
2023-04-20T09:39:59.474Z,10.15
2023-04-20T09:42:30.423Z,10.07
2023-04-20T09:44:58.319Z,10.14
2023-04-20T09:47:27.364Z,10.76
2023-04-20T09:49:56.330Z,9.81
2023-04-20T09:52:27.812Z,9.92
2023-04-20T09:54:55.804Z,9.98
2023-04-20T09:57:24.179Z,10.74
2023-04-20T09:59:53.399Z,11.53
2023-04-20T10:02:21.164Z,10.74
2023-04-20T10:04:54.405Z,10.47
2023-04-20T10:07:27.496Z,10.70
2023-04-20T10:10:06.280Z,10.68
2023-04-20T10:12:36.579Z,10.92
2023-04-20T10:15:04.173Z,11.17
2023-04-20T10:17:32.707Z,10.59
2023-04-20T10:20:00.573Z,11.12
2023-04-20T10:22:33.052Z,11.04
2023-04-20T10:25:01.250Z,11.02
2023-04-20T10:27:28.928Z,11.50
2023-04-20T10:29:56.372Z,10.40
2023-04-20T10:32:25.293Z,10.63
2023-04-20T10:35:03.461Z,10.65
2023-04-20T10:37:32.563Z,10.66
2023-04-20T10:40:00.512Z,10.94
2023-04-20T10:42:29.581Z,12.15
2023-04-20T10:44:57.163Z,12.77
2023-04-20T10:47:29.118Z,11.38
2023-04-20T10:50:07.579Z,11.91
2023-04-20T10:52:37.785Z,11.65
2023-04-20T10:55:06.836Z,12.06
2023-04-20T10:57:34.757Z,11.96
2023-04-20T11:00:16.439Z,11.44
2023-04-20T11:02:48.404Z,11.05
2023-04-20T11:05:16.812Z,11.19
2023-04-20T11:07:56.338Z,11.72
2023-04-20T11:10:37.477Z,11.79
2023-04-20T11:13:04.891Z,11.69
2023-04-20T11:15:32.913Z,12.08
2023-04-20T11:18:07.441Z,11.74
2023-04-20T11:20:35.188Z,12.14
2023-04-20T11:23:05.845Z,12.22
2023-04-20T11:25:33.254Z,11.67
2023-04-20T11:28:07.459Z,11.86
2023-04-20T11:30:39.660Z,11.87
2023-04-20T11:33:07.302Z,12.60
2023-04-20T11:35:37.860Z,12.25
2023-04-20T11:38:07.062Z,12.60
2023-04-20T11:40:34.663Z,13.34
2023-04-20T11:43:02.151Z,13.63
2023-04-20T11:45:35.039Z,13.68
2023-04-20T11:48:04.670Z,14.04
2023-04-20T11:50:32.271Z,12.43
2023-04-20T11:52:59.684Z,12.22
2023-04-20T11:55:28.388Z,12.25
2023-04-20T11:57:55.861Z,13.33
2023-04-20T12:00:23.916Z,13.03
2023-04-20T12:02:51.624Z,13.83
2023-04-20T12:05:19.221Z,13.43
2023-04-20T12:07:46.692Z,13.01
2023-04-20T12:10:14.139Z,12.53
2023-04-20T12:12:42.893Z,13.36
2023-04-20T12:15:11.062Z,13.27
2023-04-20T12:17:38.534Z,14.03
2023-04-20T12:20:08.873Z,14.32
2023-04-20T12:22:36.359Z,15.07
2023-04-20T12:25:04.098Z,13.87
2023-04-20T12:27:31.477Z,14.46
2023-04-20T12:30:00.230Z,13.61
2023-04-20T12:32:27.837Z,13.49
2023-04-20T12:34:55.932Z,14.95
2023-04-20T12:37:23.350Z,13.49
2023-04-20T12:39:51.153Z,13.81
2023-04-20T12:42:18.547Z,13.81
2023-04-20T12:44:46.068Z,14.28
2023-04-20T12:47:14.831Z,13.51
2023-04-20T12:49:42.230Z,13.85
2023-04-20T12:52:09.688Z,13.89
2023-04-20T12:54:37.068Z,14.17
2023-04-20T12:57:04.861Z,14.10
2023-04-20T12:59:32.222Z,14.43
2023-04-20T13:01:59.661Z,13.99
2023-04-20T13:04:29.099Z,13.81
2023-04-20T13:06:56.589Z,13.75
2023-04-20T13:09:26.861Z,14.11
2023-04-20T13:11:54.355Z,14.98
2023-04-20T13:14:21.957Z,14.29
2023-04-20T13:16:49.511Z,13.95
2023-04-20T13:19:17.047Z,14.71
2023-04-20T13:21:45.763Z,14.59
2023-04-20T13:24:13.161Z,15.48
2023-04-20T13:26:40.700Z,16.50
2023-04-20T13:29:08.135Z,16.12
2023-04-20T13:31:37.048Z,15.89
2023-04-20T13:34:04.540Z,15.40
2023-04-20T13:36:32.743Z,15.10
2023-04-20T13:39:01.736Z,15.09
2023-04-20T13:41:29.109Z,15.35
2023-04-20T13:43:58.257Z,16.41
2023-04-20T13:46:25.759Z,15.65
2023-04-20T13:48:53.230Z,16.21
2023-04-20T13:51:20.796Z,15.93
2023-04-20T13:53:48.972Z,16.81
2023-04-20T13:56:17.748Z,15.94
2023-04-20T13:58:45.405Z,15.93
2023-04-20T14:01:15.317Z,15.97
2023-04-20T14:03:43.129Z,15.83
2023-04-20T14:06:10.924Z,16.13
2023-04-20T14:08:38.425Z,15.51
2023-04-20T14:11:05.988Z,15.26
2023-04-20T14:13:34.769Z,15.10
2023-04-20T14:16:02.189Z,15.14
2023-04-20T14:18:29.651Z,15.70
2023-04-20T14:20:57.058Z,15.54
2023-04-20T14:23:24.459Z,15.41
2023-04-20T14:25:51.849Z,16.06
2023-04-20T14:28:19.336Z,17.15
2023-04-20T14:30:48.088Z,17.25
2023-04-20T14:33:15.926Z,16.45
2023-04-20T14:35:43.889Z,17.25
2023-04-20T14:38:11.565Z,16.57
2023-04-20T14:40:39.222Z,16.73
2023-04-20T14:43:06.903Z,17.48
2023-04-20T14:45:34.508Z,17.82
2023-04-20T14:48:03.567Z,17.08
2023-04-20T14:50:32.313Z,17.56
2023-04-20T14:52:59.831Z,17.14
2023-04-20T14:55:27.215Z,16.49
2023-04-20T14:57:56.384Z,16.13
2023-04-20T15:00:24.695Z,16.26
2023-04-20T15:02:52.304Z,16.81
2023-04-20T15:05:21.312Z,16.17
2023-04-20T15:07:50.723Z,15.98
2023-04-20T15:10:18.629Z,15.86
2023-04-20T15:12:46.299Z,15.96
2023-04-20T15:15:13.679Z,15.82
2023-04-20T15:17:41.149Z,15.97
2023-04-20T15:20:09.721Z,15.81
2023-04-20T15:22:39.102Z,16.15
2023-04-20T15:25:07.532Z,15.94
2023-04-20T15:27:35.520Z,15.85
2023-04-20T15:30:03.368Z,16.52
2023-04-20T15:32:31.047Z,16.41
2023-04-20T15:34:58.429Z,15.83
2023-04-20T15:37:26.071Z,16.06
2023-04-20T15:39:55.796Z,16.10
2023-04-20T15:42:23.586Z,16.16
2023-04-20T15:44:51.016Z,16.18
2023-04-20T15:47:18.450Z,16.06
2023-04-20T15:49:45.872Z,16.45
2023-04-20T15:52:13.313Z,16.65
2023-04-20T15:54:40.799Z,16.24
2023-04-20T15:57:09.649Z,16.13
2023-04-20T15:59:37.050Z,16.20
2023-04-20T16:02:04.626Z,16.17
2023-04-20T16:04:32.243Z,15.96
2023-04-20T16:06:59.931Z,16.38
2023-04-20T16:09:27.461Z,16.14
2023-04-20T16:11:54.865Z,16.02
2023-04-20T16:14:23.705Z,16.06
2023-04-20T16:16:51.133Z,16.20
2023-04-20T16:19:18.503Z,15.94
2023-04-20T16:21:45.927Z,15.99
2023-04-20T16:24:13.398Z,16.08
2023-04-20T16:26:41.295Z,15.88
2023-04-20T16:29:08.836Z,16.45
2023-04-20T16:31:37.717Z,16.23
2023-04-20T16:34:05.348Z,16.80
2023-04-20T16:36:33.035Z,16.28
2023-04-20T16:39:02.280Z,15.98
2023-04-20T16:41:29.669Z,16.33
2023-04-20T16:43:57.136Z,16.15
2023-04-20T16:46:24.608Z,16.41
2023-04-20T16:48:54.583Z,16.32
2023-04-20T16:51:22.129Z,16.45
2023-04-20T16:53:49.596Z,16.73
2023-04-20T16:56:17.390Z,16.77
2023-04-20T16:58:44.805Z,16.50
2023-04-20T17:01:14.142Z,16.83
2023-04-20T17:03:42.064Z,16.43
2023-04-20T17:06:10.930Z,16.43
2023-04-20T17:08:38.392Z,16.41
2023-04-20T17:11:06.103Z,16.29
2023-04-20T17:13:34.111Z,16.01
2023-04-20T17:16:01.577Z,15.99
2023-04-20T17:18:29.030Z,16.28
2023-04-20T17:20:57.594Z,16.07
2023-04-20T17:23:26.858Z,16.50
2023-04-20T17:25:54.699Z,17.04
2023-04-20T17:28:22.152Z,16.29
2023-04-20T17:30:49.904Z,16.24
2023-04-20T17:33:17.295Z,16.08
2023-04-20T17:35:46.283Z,15.95
2023-04-20T17:38:13.694Z,16.34
2023-04-20T17:40:42.544Z,16.15
2023-04-20T17:43:10.027Z,15.94
2023-04-20T17:45:37.738Z,15.98
2023-04-20T17:48:05.953Z,15.57
2023-04-20T17:50:34.389Z,15.57
2023-04-20T17:53:06.396Z,15.56
2023-04-20T17:55:34.092Z,15.89
2023-04-20T17:58:02.962Z,15.96
2023-04-20T18:00:30.432Z,16.08
2023-04-20T18:02:58.071Z,15.48
2023-04-20T18:05:26.759Z,15.61
2023-04-20T18:07:54.239Z,15.58
2023-04-20T18:10:21.704Z,15.46
2023-04-20T18:12:49.134Z,15.37
2023-04-20T18:15:17.920Z,15.30
2023-04-20T18:17:45.471Z,15.40
2023-04-20T18:20:13.580Z,15.24
2023-04-20T18:22:41.035Z,15.27
2023-04-20T18:25:09.104Z,15.60
2023-04-20T18:27:36.538Z,15.34
2023-04-20T18:30:04.670Z,15.19
2023-04-20T18:32:36.102Z,15.08
2023-04-20T18:35:03.873Z,15.13
2023-04-20T18:37:31.387Z,15.16
2023-04-20T18:39:58.973Z,15.11
2023-04-20T18:42:26.609Z,14.83
2023-04-20T18:44:54.102Z,15.28
2023-04-20T18:47:22.277Z,15.02
2023-04-20T18:49:51.292Z,15.07
2023-04-20T18:52:19.547Z,14.92
2023-04-20T18:54:47.539Z,14.75
2023-04-20T18:57:15.390Z,14.79
2023-04-20T18:59:42.828Z,14.86
2023-04-20T19:02:13.405Z,14.89
2023-04-20T19:04:41.683Z,14.85
2023-04-20T19:07:10.533Z,15.26
2023-04-20T19:09:38.011Z,14.84
2023-04-20T19:12:06.117Z,14.66
2023-04-20T19:14:33.582Z,14.54
2023-04-20T19:17:02.094Z,14.54
2023-04-20T19:19:29.759Z,14.60
2023-04-20T19:21:57.733Z,14.73
2023-04-20T19:24:26.573Z,14.63
2023-04-20T19:26:54.151Z,14.51
2023-04-20T19:29:21.609Z,14.68
2023-04-20T19:31:49.077Z,14.64
2023-04-20T19:34:17.810Z,14.87
2023-04-20T19:36:45.387Z,14.66
2023-04-20T19:39:12.804Z,14.67
2023-04-20T19:41:41.565Z,15.09
2023-04-20T19:44:10.477Z,14.68
2023-04-20T19:46:38.612Z,15.00
2023-04-20T19:49:06.245Z,14.52
2023-04-20T19:51:33.970Z,14.74
2023-04-20T19:54:03.498Z,14.61
2023-04-20T19:56:31.432Z,14.63
2023-04-20T19:59:00.231Z,14.30
2023-04-20T20:01:27.761Z,14.52
2023-04-20T20:03:55.450Z,14.83
2023-04-20T20:06:23.808Z,14.51
2023-04-20T20:08:51.555Z,14.28
2023-04-20T20:11:19.210Z,14.65
2023-04-20T20:13:46.614Z,14.01
2023-04-20T20:16:16.233Z,14.45
2023-04-20T20:18:44.909Z,14.16
2023-04-20T20:21:12.462Z,14.17
2023-04-20T20:23:39.930Z,14.13
2023-04-20T20:26:07.413Z,14.29
2023-04-20T20:28:35.018Z,14.25
2023-04-20T20:31:02.597Z,14.72
2023-04-20T20:33:32.038Z,14.73
2023-04-20T20:36:01.347Z,14.50
2023-04-20T20:38:30.939Z,14.23
2023-04-20T20:40:58.713Z,14.26
2023-04-20T20:43:26.342Z,14.43
2023-04-20T20:45:53.747Z,14.28
2023-04-20T20:48:21.658Z,14.53
2023-04-20T20:50:50.641Z,14.66
2023-04-20T20:53:20.450Z,14.64
2023-04-20T20:55:47.926Z,14.45
2023-04-20T20:58:15.438Z,14.13
2023-04-20T21:00:42.935Z,14.59
2023-04-20T21:03:10.600Z,14.75
2023-04-20T21:05:38.373Z,14.26
2023-04-20T21:08:09.797Z,14.09
2023-04-20T21:10:37.365Z,13.86
2023-04-20T21:13:05.981Z,13.93
2023-04-20T21:15:33.970Z,14.13
2023-04-20T21:18:01.583Z,13.85
2023-04-20T21:20:29.777Z,13.66
2023-04-20T21:22:57.293Z,13.82
2023-04-20T21:25:26.197Z,13.78
2023-04-20T21:27:54.013Z,13.68
2023-04-20T21:30:21.703Z,13.32
2023-04-20T21:32:49.245Z,13.47
2023-04-20T21:35:16.852Z,13.76
2023-04-20T21:37:44.368Z,13.38
2023-04-20T21:40:12.759Z,13.58
2023-04-20T21:42:41.492Z,13.78
2023-04-20T21:45:10.272Z,13.96
2023-04-20T21:47:37.774Z,13.35
2023-04-20T21:50:06.266Z,13.55
2023-04-20T21:52:43.220Z,13.21
2023-04-20T21:55:11.249Z,13.49
2023-04-20T21:57:38.712Z,13.46
2023-04-20T22:00:09.712Z,13.37
2023-04-20T22:02:37.358Z,13.26
2023-04-20T22:05:05.400Z,13.38
2023-04-20T22:07:33.422Z,13.52
2023-04-20T22:10:01.916Z,13.28
2023-04-20T22:12:38.856Z,13.33
2023-04-20T22:15:11.865Z,13.27
2023-04-20T22:17:39.326Z,13.19
2023-04-20T22:20:09.084Z,13.63
2023-04-20T22:22:37.849Z,13.67
2023-04-20T22:25:07.491Z,13.64
2023-04-20T22:27:36.128Z,13.57
2023-04-20T22:30:04.121Z,13.33
2023-04-20T22:32:32.912Z,13.61
2023-04-20T22:35:00.463Z,13.49
2023-04-20T22:37:27.900Z,13.54
2023-04-20T22:39:56.061Z,13.81
2023-04-20T22:42:23.494Z,13.77
2023-04-20T22:44:51.304Z,13.59
2023-04-20T22:47:19.085Z,13.50
2023-04-20T22:49:49.096Z,13.32
2023-04-20T22:52:16.511Z,13.34
2023-04-20T22:54:47.861Z,13.29
2023-04-20T22:57:15.762Z,13.46
2023-04-20T22:59:43.282Z,13.53
2023-04-20T23:02:11.039Z,13.52
2023-04-20T23:04:39.286Z,13.35
2023-04-20T23:07:08.228Z,13.38
2023-04-20T23:09:39.746Z,13.39
2023-04-20T23:12:09.746Z,13.50
2023-04-20T23:14:39.044Z,13.38
2023-04-20T23:17:07.362Z,13.50
2023-04-20T23:19:35.225Z,13.23
2023-04-20T23:22:03.665Z,13.12
2023-04-20T23:24:32.433Z,13.20
2023-04-20T23:26:59.857Z,13.11
2023-04-20T23:29:27.260Z,13.05
2023-04-20T23:31:54.739Z,13.24
2023-04-20T23:34:22.234Z,13.25
2023-04-20T23:36:50.571Z,13.33
2023-04-20T23:39:18.536Z,13.16
2023-04-20T23:41:49.070Z,12.97
2023-04-20T23:44:16.485Z,13.02
2023-04-20T23:46:43.886Z,12.94
2023-04-20T23:49:11.398Z,12.95
2023-04-20T23:51:38.796Z,12.83
2023-04-20T23:54:06.347Z,12.76
2023-04-20T23:56:33.773Z,12.65
2023-04-20T23:59:02.592Z,12.87
